sensor_id;sensor_type;location;lat;lon;timestamp;pressure;altitude;pressure_sealevel;temperature;humidity
9721;BME280;4899;42.644;23.366;2022-10-16T11:12:37;95122.81;;;16.97;55.13
9721;BME280;4899;42.644;23.366;2022-10-16T11:15:12;95131.56;;;17.65;52.11
9721;BME280;4899;42.644;23.366;2022-10-16T11:17:43;95125.34;;;20.22;44.99
9721;BME280;4899;42.644;23.366;2022-10-16T11:20:14;95134.44;;;23.61;38.91
9721;BME280;4899;42.644;23.366;2022-10-16T11:22:47;95135.81;;;26.02;34.50
9721;BME280;4899;42.644;23.366;2022-10-16T11:25:18;95110.03;;;27.39;32.87
9721;BME280;4899;42.644;23.366;2022-10-16T11:27:52;95132.63;;;28.15;31.32
9721;BME280;4899;42.644;23.366;2022-10-16T11:30:23;95138.66;;;29.23;30.21
9721;BME280;4899;42.644;23.366;2022-10-16T11:32:58;95126.75;;;30.70;28.81
9721;BME280;4899;42.644;23.366;2022-10-16T11:35:38;95139.06;;;31.58;27.17
9721;BME280;4899;42.644;23.366;2022-10-16T11:38:14;95121.38;;;32.35;26.55
9721;BME280;4899;42.644;23.366;2022-10-16T11:40:43;95156.25;;;33.51;26.14
9721;BME280;4899;42.644;23.366;2022-10-16T11:43:19;95155.53;;;33.94;25.36
9721;BME280;4899;42.644;23.366;2022-10-16T11:45:51;95150.19;;;33.94;24.89
9721;BME280;4899;42.644;23.366;2022-10-16T11:48:24;95152.19;;;33.81;25.16
9721;BME280;4899;42.644;23.366;2022-10-16T11:50:56;95136.91;;;33.82;25.28
9721;BME280;4899;42.644;23.366;2022-10-16T11:53:35;95132.22;;;34.17;25.05
9721;BME280;4899;42.644;23.366;2022-10-16T11:56:05;95148.72;;;33.93;24.78
9721;BME280;4899;42.644;23.366;2022-10-16T11:58:36;95144.06;;;33.85;24.82
9721;BME280;4899;42.644;23.366;2022-10-16T12:01:15;95136.59;;;33.58;25.25
9721;BME280;4899;42.644;23.366;2022-10-16T12:03:47;95149.06;;;33.83;25.67
9721;BME280;4899;42.644;23.366;2022-10-16T12:06:27;95141.22;;;33.67;24.44
9721;BME280;4899;42.644;23.366;2022-10-16T12:08:58;95141.34;;;33.63;24.43
9721;BME280;4899;42.644;23.366;2022-10-16T12:11:35;95144.00;;;34.50;23.79
9721;BME280;4899;42.644;23.366;2022-10-16T12:14:20;95145.91;;;33.75;23.52
9721;BME280;4899;42.644;23.366;2022-10-16T12:16:51;95148.44;;;34.22;24.05
9721;BME280;4899;42.644;23.366;2022-10-16T12:19:20;95153.00;;;34.75;23.46
9721;BME280;4899;42.644;23.366;2022-10-16T12:21:48;95139.34;;;35.50;23.67
9721;BME280;4899;42.644;23.366;2022-10-16T12:24:22;95122.94;;;35.29;23.04
9721;BME280;4899;42.644;23.366;2022-10-16T12:26:54;95148.84;;;35.87;23.68
9721;BME280;4899;42.644;23.366;2022-10-16T12:29:34;95141.28;;;35.95;22.58
9721;BME280;4899;42.644;23.366;2022-10-16T12:32:03;95146.56;;;36.22;22.30
9721;BME280;4899;42.644;23.366;2022-10-16T12:34:37;95146.84;;;36.66;21.76
9721;BME280;4899;42.644;23.366;2022-10-16T12:37:11;95150.25;;;36.76;22.06
9721;BME280;4899;42.644;23.366;2022-10-16T12:39:39;95147.47;;;36.61;22.01
9721;BME280;4899;42.644;23.366;2022-10-16T12:42:21;95151.72;;;37.34;21.83
9721;BME280;4899;42.644;23.366;2022-10-16T12:44:50;95147.31;;;37.84;21.75
9721;BME280;4899;42.644;23.366;2022-10-16T12:47:22;95153.34;;;38.38;20.96
9721;BME280;4899;42.644;23.366;2022-10-16T12:49:51;95155.09;;;38.91;20.73
9721;BME280;4899;42.644;23.366;2022-10-16T12:52:27;95153.69;;;38.16;20.84
9721;BME280;4899;42.644;23.366;2022-10-16T12:54:56;95154.72;;;37.75;21.10
9721;BME280;4899;42.644;23.366;2022-10-16T12:57:35;95145.59;;;37.10;21.44
9721;BME280;4899;42.644;23.366;2022-10-16T13:00:13;95150.47;;;37.20;21.94
9721;BME280;4899;42.644;23.366;2022-10-16T13:02:59;95152.38;;;37.68;21.61
9721;BME280;4899;42.644;23.366;2022-10-16T13:05:38;95155.19;;;37.73;21.56
9721;BME280;4899;42.644;23.366;2022-10-16T13:08:24;95140.81;;;37.91;21.35
9721;BME280;4899;42.644;23.366;2022-10-16T13:11:00;95152.69;;;37.84;21.29
9721;BME280;4899;42.644;23.366;2022-10-16T13:13:56;95154.84;;;37.56;21.90
9721;BME280;4899;42.644;23.366;2022-10-16T13:16:36;95153.19;;;36.87;22.20
9721;BME280;4899;42.644;23.366;2022-10-16T13:19:14;95158.66;;;36.60;22.10
9721;BME280;4899;42.644;23.366;2022-10-16T13:21:49;95153.16;;;36.96;22.00
9721;BME280;4899;42.644;23.366;2022-10-16T13:24:25;95154.84;;;37.56;21.47
9721;BME280;4899;42.644;23.366;2022-10-16T13:27:01;95153.03;;;37.92;20.74
9721;BME280;4899;42.644;23.366;2022-10-16T13:29:33;95151.50;;;38.00;21.24
9721;BME280;4899;42.644;23.366;2022-10-16T13:32:07;95151.72;;;37.34;21.10
9721;BME280;4899;42.644;23.366;2022-10-16T13:34:44;95149.19;;;36.41;21.95
9721;BME280;4899;42.644;23.366;2022-10-16T13:37:17;95152.09;;;35.82;22.35
9721;BME280;4899;42.644;23.366;2022-10-16T13:39:45;95142.75;;;35.87;22.02
9721;BME280;4899;42.644;23.366;2022-10-16T13:42:14;95153.56;;;36.20;22.06
9721;BME280;4899;42.644;23.366;2022-10-16T13:44:45;95146.63;;;35.86;21.80
9721;BME280;4899;42.644;23.366;2022-10-16T13:47:19;95148.34;;;35.06;22.68
9721;BME280;4899;42.644;23.366;2022-10-16T13:49:48;95154.00;;;34.99;22.47
9721;BME280;4899;42.644;23.366;2022-10-16T13:52:24;95152.88;;;35.37;22.78
9721;BME280;4899;42.644;23.366;2022-10-16T13:54:51;95151.97;;;36.04;22.50
9721;BME280;4899;42.644;23.366;2022-10-16T13:57:22;95149.16;;;36.50;22.03
9721;BME280;4899;42.644;23.366;2022-10-16T13:59:49;95165.75;;;37.05;21.63
9721;BME280;4899;42.644;23.366;2022-10-16T14:02:24;95152.13;;;36.52;21.91
9721;BME280;4899;42.644;23.366;2022-10-16T14:04:53;95165.16;;;36.26;22.05
9721;BME280;4899;42.644;23.366;2022-10-16T14:07:24;95154.97;;;35.69;21.84
9721;BME280;4899;42.644;23.366;2022-10-16T14:09:52;95156.75;;;35.45;22.44
9721;BME280;4899;42.644;23.366;2022-10-16T14:12:19;95148.50;;;35.12;22.46
9721;BME280;4899;42.644;23.366;2022-10-16T14:14:49;95157.56;;;35.05;22.62
9721;BME280;4899;42.644;23.366;2022-10-16T14:17:21;95161.31;;;35.26;22.91
9721;BME280;4899;42.644;23.366;2022-10-16T14:19:50;95165.41;;;34.60;22.92
9721;BME280;4899;42.644;23.366;2022-10-16T14:22:26;95168.66;;;34.54;23.11
9721;BME280;4899;42.644;23.366;2022-10-16T14:24:55;95143.38;;;33.72;23.45
9721;BME280;4899;42.644;23.366;2022-10-16T14:27:28;95161.53;;;33.99;23.13
9721;BME280;4899;42.644;23.366;2022-10-16T14:30:11;95171.31;;;33.80;23.04
9721;BME280;4899;42.644;23.366;2022-10-16T14:32:52;95173.50;;;33.59;23.26
9721;BME280;4899;42.644;23.366;2022-10-16T14:35:23;95156.44;;;33.22;23.28
9721;BME280;4899;42.644;23.366;2022-10-16T14:37:52;95174.28;;;32.87;23.61
9721;BME280;4899;42.644;23.366;2022-10-16T14:40:21;95158.09;;;32.14;23.95
9721;BME280;4899;42.644;23.366;2022-10-16T14:42:49;95167.69;;;31.54;25.13
9721;BME280;4899;42.644;23.366;2022-10-16T14:45:19;95169.00;;;30.97;25.21
9721;BME280;4899;42.644;23.366;2022-10-16T14:47:50;95172.81;;;30.27;25.95
9721;BME280;4899;42.644;23.366;2022-10-16T14:50:19;95175.13;;;29.62;26.24
9721;BME280;4899;42.644;23.366;2022-10-16T14:52:46;95169.56;;;29.33;26.72
9721;BME280;4899;42.644;23.366;2022-10-16T14:55:13;95167.44;;;29.25;27.24
9721;BME280;4899;42.644;23.366;2022-10-16T14:57:40;95173.22;;;28.93;27.34
9721;BME280;4899;42.644;23.366;2022-10-16T15:00:18;95169.53;;;28.29;27.75
9721;BME280;4899;42.644;23.366;2022-10-16T15:02:46;95169.22;;;27.04;29.02
9721;BME280;4899;42.644;23.366;2022-10-16T15:05:18;95156.66;;;25.22;30.99
9721;BME280;4899;42.644;23.366;2022-10-16T15:07:45;95171.97;;;23.66;33.55
9721;BME280;4899;42.644;23.366;2022-10-16T15:10:12;95179.84;;;22.36;35.29
9721;BME280;4899;42.644;23.366;2022-10-16T15:12:39;95173.69;;;21.39;37.14
9721;BME280;4899;42.644;23.366;2022-10-16T15:15:25;95171.66;;;20.41;38.94
9721;BME280;4899;42.644;23.366;2022-10-16T15:17:54;95167.28;;;19.55;40.40
9721;BME280;4899;42.644;23.366;2022-10-16T15:20:24;95171.44;;;18.93;41.68
9721;BME280;4899;42.644;23.366;2022-10-16T15:22:51;95161.28;;;18.32;43.30
9721;BME280;4899;42.644;23.366;2022-10-16T15:25:29;95181.28;;;18.00;44.80
9721;BME280;4899;42.644;23.366;2022-10-16T15:27:57;95167.03;;;17.45;46.16
9721;BME280;4899;42.644;23.366;2022-10-16T15:30:23;95182.16;;;17.07;47.95
9721;BME280;4899;42.644;23.366;2022-10-16T15:32:50;95181.69;;;16.68;50.36
9721;BME280;4899;42.644;23.366;2022-10-16T15:35:17;95167.66;;;16.27;52.44
9721;BME280;4899;42.644;23.366;2022-10-16T15:37:46;95190.66;;;16.17;52.04
9721;BME280;4899;42.644;23.366;2022-10-16T15:40:13;95189.47;;;15.93;54.18
9721;BME280;4899;42.644;23.366;2022-10-16T15:42:40;95186.47;;;15.53;55.64
9721;BME280;4899;42.644;23.366;2022-10-16T15:45:08;95186.88;;;15.34;57.23
9721;BME280;4899;42.644;23.366;2022-10-16T15:47:35;95200.69;;;15.18;61.20
9721;BME280;4899;42.644;23.366;2022-10-16T15:50:03;95134.16;;;14.45;64.44
9721;BME280;4899;42.644;23.366;2022-10-16T15:52:30;95200.84;;;14.66;68.12
9721;BME280;4899;42.644;23.366;2022-10-16T15:54:59;95212.88;;;14.44;71.75
9721;BME280;4899;42.644;23.366;2022-10-16T15:59:41;95187.28;;;13.91;77.45
9721;BME280;4899;42.644;23.366;2022-10-16T16:02:08;95216.66;;;13.95;81.33
9721;BME280;4899;42.644;23.366;2022-10-16T16:04:35;95211.00;;;13.76;83.28
9721;BME280;4899;42.644;23.366;2022-10-16T16:07:01;95220.97;;;13.51;90.00
9721;BME280;4899;42.644;23.366;2022-10-16T16:09:29;95229.72;;;13.33;92.92
9721;BME280;4899;42.644;23.366;2022-10-16T16:11:56;95198.03;;;12.88;96.40
9721;BME280;4899;42.644;23.366;2022-10-16T16:14:25;95223.06;;;12.79;100.00
9721;BME280;4899;42.644;23.366;2022-10-16T16:16:54;95225.88;;;12.69;100.00
9721;BME280;4899;42.644;23.366;2022-10-16T16:19:21;95231.34;;;12.45;100.00
9721;BME280;4899;42.644;23.366;2022-10-16T16:21:49;95192.50;;;12.05;100.00
9721;BME280;4899;42.644;23.366;2022-10-16T16:24:16;95238.81;;;12.32;100.00
9721;BME280;4899;42.644;23.366;2022-10-16T16:26:43;95231.03;;;12.24;100.00
9721;BME280;4899;42.644;23.366;2022-10-16T16:29:11;95256.81;;;12.24;100.00
9721;BME280;4899;42.644;23.366;2022-10-16T16:31:39;95246.44;;;12.15;100.00
9721;BME280;4899;42.644;23.366;2022-10-16T16:34:08;95249.13;;;12.10;100.00
9721;BME280;4899;42.644;23.366;2022-10-16T16:36:35;95180.28;;;11.47;100.00
9721;BME280;4899;42.644;23.366;2022-10-16T16:39:03;95244.28;;;11.81;100.00
9721;BME280;4899;42.644;23.366;2022-10-16T16:41:30;95247.06;;;11.71;100.00
9721;BME280;4899;42.644;23.366;2022-10-16T16:57:03;95267.22;;;11.83;100.00
9721;BME280;4899;42.644;23.366;2022-10-16T16:59:30;95285.81;;;11.80;100.00
9721;BME280;4899;42.644;23.366;2022-10-16T17:01:58;95280.38;;;11.54;100.00
9721;BME280;4899;42.644;23.366;2022-10-16T17:04:25;95281.31;;;11.44;100.00
9721;BME280;4899;42.644;23.366;2022-10-16T17:06:52;95255.13;;;11.09;100.00
9721;BME280;4899;42.644;23.366;2022-10-16T17:09:20;95236.09;;;10.78;100.00
9721;BME280;4899;42.644;23.366;2022-10-16T17:11:46;95295.75;;;11.13;100.00
9721;BME280;4899;42.644;23.366;2022-10-16T17:14:15;95303.94;;;11.01;100.00
9721;BME280;4899;42.644;23.366;2022-10-16T17:16:45;95304.31;;;10.94;100.00
9721;BME280;4899;42.644;23.366;2022-10-16T17:19:16;95303.31;;;10.90;100.00
9721;BME280;4899;42.644;23.366;2022-10-16T17:24:19;95304.63;;;10.74;100.00
9721;BME280;4899;42.644;23.366;2022-10-16T17:26:46;95301.84;;;10.70;100.00
9721;BME280;4899;42.644;23.366;2022-10-16T17:29:15;95308.06;;;10.64;100.00
9721;BME280;4899;42.644;23.366;2022-10-16T17:31:43;95313.03;;;10.61;100.00
9721;BME280;4899;42.644;23.366;2022-10-16T17:34:10;95288.09;;;10.42;100.00
9721;BME280;4899;42.644;23.366;2022-10-16T17:36:38;95308.44;;;10.58;100.00
9721;BME280;4899;42.644;23.366;2022-10-16T17:39:10;95299.91;;;10.43;100.00
9721;BME280;4899;42.644;23.366;2022-10-16T17:41:39;95270.53;;;10.07;100.00
9721;BME280;4899;42.644;23.366;2022-10-16T17:44:06;95317.19;;;10.38;100.00
9721;BME280;4899;42.644;23.366;2022-10-16T18:08:05;95333.19;;;10.72;100.00
9721;BME280;4899;42.644;23.366;2022-10-16T18:10:32;95331.66;;;10.71;100.00
9721;BME280;4899;42.644;23.366;2022-10-16T18:12:59;95336.63;;;10.68;100.00
9721;BME280;4899;42.644;23.366;2022-10-16T18:15:26;95318.53;;;10.54;100.00
9721;BME280;4899;42.644;23.366;2022-10-16T18:17:52;95337.72;;;10.62;100.00
9721;BME280;4899;42.644;23.366;2022-10-16T18:20:19;95340.06;;;10.58;100.00
9721;BME280;4899;42.644;23.366;2022-10-16T18:22:46;95333.28;;;10.48;100.00
9721;BME280;4899;42.644;23.366;2022-10-16T18:28:38;95339.94;;;10.50;100.00
9721;BME280;4899;42.644;23.366;2022-10-16T18:31:06;95358.66;;;10.55;100.00
9721;BME280;4899;42.644;23.366;2022-10-16T18:33:36;95350.44;;;10.53;100.00
9721;BME280;4899;42.644;23.366;2022-10-16T18:36:05;95351.22;;;10.54;100.00
9721;BME280;4899;42.644;23.366;2022-10-16T18:38:33;95360.81;;;10.48;100.00
9721;BME280;4899;42.644;23.366;2022-10-16T18:41:01;95362.41;;;10.44;100.00
9721;BME280;4899;42.644;23.366;2022-10-16T18:43:30;95361.84;;;10.47;100.00
9721;BME280;4899;42.644;23.366;2022-10-16T18:45:59;95355.28;;;10.36;100.00
9721;BME280;4899;42.644;23.366;2022-10-16T18:48:26;95372.22;;;10.42;100.00
9721;BME280;4899;42.644;23.366;2022-10-16T18:51:05;95371.47;;;10.36;100.00
9721;BME280;4899;42.644;23.366;2022-10-16T18:53:33;95386.88;;;10.41;100.00
9721;BME280;4899;42.644;23.366;2022-10-16T18:56:00;95389.16;;;10.43;100.00
9721;BME280;4899;42.644;23.366;2022-10-16T18:58:27;95386.63;;;10.38;100.00
9721;BME280;4899;42.644;23.366;2022-10-16T19:03:09;95399.94;;;10.45;100.00
9721;BME280;4899;42.644;23.366;2022-10-16T19:05:36;95399.50;;;10.38;100.00
9721;BME280;4899;42.644;23.366;2022-10-16T19:08:03;95400.38;;;10.28;100.00
9721;BME280;4899;42.644;23.366;2022-10-16T19:10:30;95399.13;;;10.26;100.00
9721;BME280;4899;42.644;23.366;2022-10-16T19:12:57;95407.41;;;10.23;100.00
9721;BME280;4899;42.644;23.366;2022-10-16T19:15:24;95407.97;;;10.14;100.00
9721;BME280;4899;42.644;23.366;2022-10-16T19:17:51;95409.41;;;10.02;100.00
9721;BME280;4899;42.644;23.366;2022-10-16T19:20:19;95414.88;;;9.95;100.00
9721;BME280;4899;42.644;23.366;2022-10-16T19:22:46;95414.13;;;9.90;100.00
9721;BME280;4899;42.644;23.366;2022-10-16T19:25:21;95411.88;;;9.83;100.00
9721;BME280;4899;42.644;23.366;2022-10-16T19:27:48;95412.97;;;9.77;100.00
9721;BME280;4899;42.644;23.366;2022-10-16T19:37:31;95428.50;;;9.67;100.00
9721;BME280;4899;42.644;23.366;2022-10-16T19:39:58;95406.59;;;9.40;100.00
9721;BME280;4899;42.644;23.366;2022-10-16T19:46:12;95429.72;;;9.40;100.00
9721;BME280;4899;42.644;23.366;2022-10-16T19:51:17;95444.91;;;9.37;100.00
9721;BME280;4899;42.644;23.366;2022-10-16T19:53:45;95440.34;;;9.29;100.00
9721;BME280;4899;42.644;23.366;2022-10-16T19:56:13;95448.84;;;9.24;100.00
9721;BME280;4899;42.644;23.366;2022-10-16T19:58:41;95428.91;;;9.11;100.00
9721;BME280;4899;42.644;23.366;2022-10-16T20:01:08;95402.38;;;8.86;100.00
9721;BME280;4899;42.644;23.366;2022-10-16T20:07:08;95451.47;;;9.14;100.00
9721;BME280;4899;42.644;23.366;2022-10-16T20:20:08;95464.22;;;8.85;100.00
9721;BME280;4899;42.644;23.366;2022-10-16T20:28:41;95462.38;;;8.96;100.00
9721;BME280;4899;42.644;23.366;2022-10-16T20:31:46;95463.41;;;8.94;100.00
9721;BME280;4899;42.644;23.366;2022-10-16T20:37:38;95470.34;;;8.89;100.00
9721;BME280;4899;42.644;23.366;2022-10-16T20:40:06;95464.22;;;8.85;100.00
9721;BME280;4899;42.644;23.366;2022-10-16T20:42:33;95466.06;;;8.74;100.00
9721;BME280;4899;42.644;23.366;2022-10-16T20:44:59;95432.81;;;8.54;100.00
9721;BME280;4899;42.644;23.366;2022-10-16T20:55:59;95462.44;;;8.80;100.00
9721;BME280;4899;42.644;23.366;2022-10-16T21:06:53;95461.13;;;8.88;100.00
9721;BME280;4899;42.644;23.366;2022-10-16T21:12:16;95460.88;;;8.84;100.00
9721;BME280;4899;42.644;23.366;2022-10-16T21:19:15;95468.91;;;8.73;100.00
9721;BME280;4899;42.644;23.366;2022-10-16T21:21:41;95428.47;;;8.49;100.00
9721;BME280;4899;42.644;23.366;2022-10-16T21:32:26;95455.38;;;8.52;100.00
9721;BME280;4899;42.644;23.366;2022-10-16T21:34:53;95472.81;;;8.55;100.00
9721;BME280;4899;42.644;23.366;2022-10-16T21:37:20;95471.06;;;8.45;100.00
9721;BME280;4899;42.644;23.366;2022-10-16T21:39:47;95470.78;;;8.42;100.00
9721;BME280;4899;42.644;23.366;2022-10-16T21:42:13;95462.63;;;8.29;100.00
9721;BME280;4899;42.644;23.366;2022-10-16T21:50:20;95460.59;;;8.16;100.00
9721;BME280;4899;42.644;23.366;2022-10-16T22:00:31;95459.13;;;7.64;100.00
9721;BME280;4899;42.644;23.366;2022-10-16T22:07:20;95493.94;;;7.96;100.00
9721;BME280;4899;42.644;23.366;2022-10-16T22:12:11;95503.16;;;7.87;100.00
9721;BME280;4899;42.644;23.366;2022-10-16T22:16:38;95510.63;;;7.73;100.00
9721;BME280;4899;42.644;23.366;2022-10-16T22:19:06;95530.84;;;7.75;100.00
